sensor_id;sensor_type;location;lat;lon;timestamp;P1;durP1;ratioP1;P2;durP2;ratioP2
37483;SDS011;23337;52.212;9.926;2024-02-21T00:00:47;21.37;;;7.97;;
37483;SDS011;23337;52.212;9.926;2024-02-21T00:03:13;17.27;;;7.70;;
37483;SDS011;23337;52.212;9.926;2024-02-21T00:05:39;13.60;;;7.67;;
37483;SDS011;23337;52.212;9.926;2024-02-21T00:08:05;14.50;;;8.83;;
37483;SDS011;23337;52.212;9.926;2024-02-21T00:10:31;15.50;;;8.50;;
37483;SDS011;23337;52.212;9.926;2024-02-21T00:12:58;20.90;;;10.37;;
37483;SDS011;23337;52.212;9.926;2024-02-21T00:15:27;16.17;;;8.93;;
37483;SDS011;23337;52.212;9.926;2024-02-21T00:17:53;17.63;;;8.80;;
37483;SDS011;23337;52.212;9.926;2024-02-21T00:20:19;21.67;;;10.20;;
37483;SDS011;23337;52.212;9.926;2024-02-21T00:22:45;18.47;;;10.40;;
37483;SDS011;23337;52.212;9.926;2024-02-21T00:25:11;19.97;;;10.70;;
37483;SDS011;23337;52.212;9.926;2024-02-21T00:27:37;21.47;;;11.07;;
37483;SDS011;23337;52.212;9.926;2024-02-21T00:30:04;23.10;;;10.60;;
37483;SDS011;23337;52.212;9.926;2024-02-21T00:32:30;23.60;;;11.90;;
37483;SDS011;23337;52.212;9.926;2024-02-21T00:34:58;21.00;;;11.23;;
37483;SDS011;23337;52.212;9.926;2024-02-21T00:37:24;24.50;;;12.20;;
37483;SDS011;23337;52.212;9.926;2024-02-21T00:39:50;19.07;;;11.00;;
37483;SDS011;23337;52.212;9.926;2024-02-21T00:42:16;16.80;;;10.67;;
37483;SDS011;23337;52.212;9.926;2024-02-21T00:44:42;23.57;;;12.00;;
37483;SDS011;23337;52.212;9.926;2024-02-21T00:47:09;21.47;;;11.63;;
37483;SDS011;23337;52.212;9.926;2024-02-21T00:49:36;24.47;;;12.00;;
37483;SDS011;23337;52.212;9.926;2024-02-21T00:52:02;23.20;;;12.00;;
37483;SDS011;23337;52.212;9.926;2024-02-21T00:54:27;20.67;;;12.57;;
37483;SDS011;23337;52.212;9.926;2024-02-21T00:56:53;30.33;;;12.57;;
37483;SDS011;23337;52.212;9.926;2024-02-21T00:59:19;27.83;;;12.87;;
37483;SDS011;23337;52.212;9.926;2024-02-21T01:01:45;21.20;;;11.87;;
37483;SDS011;23337;52.212;9.926;2024-02-21T01:04:11;20.90;;;11.53;;
37483;SDS011;23337;52.212;9.926;2024-02-21T01:06:37;24.37;;;11.83;;
37483;SDS011;23337;52.212;9.926;2024-02-21T01:09:03;21.70;;;12.47;;
37483;SDS011;23337;52.212;9.926;2024-02-21T01:11:29;20.27;;;12.13;;
37483;SDS011;23337;52.212;9.926;2024-02-21T01:13:55;23.67;;;12.17;;
37483;SDS011;23337;52.212;9.926;2024-02-21T01:16:21;27.63;;;12.97;;
37483;SDS011;23337;52.212;9.926;2024-02-21T01:18:47;23.40;;;12.10;;
37483;SDS011;23337;52.212;9.926;2024-02-21T01:21:13;24.57;;;11.87;;
37483;SDS011;23337;52.212;9.926;2024-02-21T01:23:39;21.90;;;12.10;;
37483;SDS011;23337;52.212;9.926;2024-02-21T01:26:05;19.27;;;11.83;;
37483;SDS011;23337;52.212;9.926;2024-02-21T01:28:33;17.97;;;11.57;;
37483;SDS011;23337;52.212;9.926;2024-02-21T01:30:59;21.03;;;11.27;;
37483;SDS011;23337;52.212;9.926;2024-02-21T01:33:25;23.80;;;11.53;;
37483;SDS011;23337;52.212;9.926;2024-02-21T01:35:51;20.43;;;11.47;;
37483;SDS011;23337;52.212;9.926;2024-02-21T01:38:17;21.40;;;11.63;;
37483;SDS011;23337;52.212;9.926;2024-02-21T01:40:43;23.40;;;12.00;;
37483;SDS011;23337;52.212;9.926;2024-02-21T01:43:15;15.37;;;10.80;;
37483;SDS011;23337;52.212;9.926;2024-02-21T01:45:42;17.20;;;9.90;;
37483;SDS011;23337;52.212;9.926;2024-02-21T01:48:08;19.40;;;11.70;;
37483;SDS011;23337;52.212;9.926;2024-02-21T01:50:35;17.53;;;11.13;;
37483;SDS011;23337;52.212;9.926;2024-02-21T01:53:01;18.47;;;9.93;;
37483;SDS011;23337;52.212;9.926;2024-02-21T01:55:27;21.20;;;11.57;;
37483;SDS011;23337;52.212;9.926;2024-02-21T01:57:53;16.03;;;10.83;;
37483;SDS011;23337;52.212;9.926;2024-02-21T02:00:20;20.77;;;11.27;;
37483;SDS011;23337;52.212;9.926;2024-02-21T02:02:46;18.83;;;10.83;;
37483;SDS011;23337;52.212;9.926;2024-02-21T02:05:12;16.73;;;11.07;;
37483;SDS011;23337;52.212;9.926;2024-02-21T02:07:38;22.40;;;11.87;;
37483;SDS011;23337;52.212;9.926;2024-02-21T02:10:04;16.27;;;11.23;;
37483;SDS011;23337;52.212;9.926;2024-02-21T02:12:30;19.53;;;11.53;;
37483;SDS011;23337;52.212;9.926;2024-02-21T02:15:02;17.67;;;11.73;;
37483;SDS011;23337;52.212;9.926;2024-02-21T02:17:31;22.97;;;12.00;;
37483;SDS011;23337;52.212;9.926;2024-02-21T02:19:57;21.00;;;11.57;;
37483;SDS011;23337;52.212;9.926;2024-02-21T02:22:27;24.70;;;12.10;;
37483;SDS011;23337;52.212;9.926;2024-02-21T02:24:53;22.77;;;13.40;;
37483;SDS011;23337;52.212;9.926;2024-02-21T02:27:20;21.77;;;11.20;;
37483;SDS011;23337;52.212;9.926;2024-02-21T02:29:48;20.70;;;12.67;;
37483;SDS011;23337;52.212;9.926;2024-02-21T02:32:14;24.50;;;13.97;;
37483;SDS011;23337;52.212;9.926;2024-02-21T02:34:40;18.37;;;12.73;;
37483;SDS011;23337;52.212;9.926;2024-02-21T02:37:06;22.23;;;13.10;;
37483;SDS011;23337;52.212;9.926;2024-02-21T02:39:32;18.07;;;13.07;;
37483;SDS011;23337;52.212;9.926;2024-02-21T02:41:57;22.10;;;12.77;;
37483;SDS011;23337;52.212;9.926;2024-02-21T02:44:23;22.83;;;13.67;;
37483;SDS011;23337;52.212;9.926;2024-02-21T02:46:49;17.27;;;11.60;;
37483;SDS011;23337;52.212;9.926;2024-02-21T02:49:15;24.83;;;13.57;;
37483;SDS011;23337;52.212;9.926;2024-02-21T02:51:42;17.47;;;12.33;;
37483;SDS011;23337;52.212;9.926;2024-02-21T02:54:08;24.00;;;14.23;;
37483;SDS011;23337;52.212;9.926;2024-02-21T02:56:34;26.97;;;13.87;;
37483;SDS011;23337;52.212;9.926;2024-02-21T02:59:00;29.13;;;14.47;;
37483;SDS011;23337;52.212;9.926;2024-02-21T03:01:26;24.43;;;14.37;;
37483;SDS011;23337;52.212;9.926;2024-02-21T03:03:52;24.67;;;12.87;;
37483;SDS011;23337;52.212;9.926;2024-02-21T03:06:18;22.80;;;13.27;;
37483;SDS011;23337;52.212;9.926;2024-02-21T03:08:44;20.57;;;12.73;;
37483;SDS011;23337;52.212;9.926;2024-02-21T03:11:10;23.20;;;13.37;;
37483;SDS011;23337;52.212;9.926;2024-02-21T03:13:36;23.20;;;13.87;;
37483;SDS011;23337;52.212;9.926;2024-02-21T03:16:02;25.63;;;15.60;;
37483;SDS011;23337;52.212;9.926;2024-02-21T03:18:28;21.80;;;13.90;;
37483;SDS011;23337;52.212;9.926;2024-02-21T03:20:54;25.47;;;13.20;;
37483;SDS011;23337;52.212;9.926;2024-02-21T03:23:20;18.97;;;13.43;;
37483;SDS011;23337;52.212;9.926;2024-02-21T03:25:46;17.37;;;13.70;;
37483;SDS011;23337;52.212;9.926;2024-02-21T03:28:12;19.30;;;13.73;;
37483;SDS011;23337;52.212;9.926;2024-02-21T03:30:38;22.00;;;13.73;;
37483;SDS011;23337;52.212;9.926;2024-02-21T03:33:04;20.17;;;12.07;;
37483;SDS011;23337;52.212;9.926;2024-02-21T03:35:30;21.50;;;13.60;;
37483;SDS011;23337;52.212;9.926;2024-02-21T03:37:56;19.37;;;14.50;;
37483;SDS011;23337;52.212;9.926;2024-02-21T03:40:22;24.27;;;13.67;;
37483;SDS011;23337;52.212;9.926;2024-02-21T03:42:48;18.37;;;13.57;;
37483;SDS011;23337;52.212;9.926;2024-02-21T03:45:14;23.37;;;13.83;;
37483;SDS011;23337;52.212;9.926;2024-02-21T03:47:40;20.47;;;13.00;;
37483;SDS011;23337;52.212;9.926;2024-02-21T03:50:06;20.07;;;13.93;;
37483;SDS011;23337;52.212;9.926;2024-02-21T03:52:32;20.40;;;13.77;;
37483;SDS011;23337;52.212;9.926;2024-02-21T03:54:58;21.30;;;13.13;;
37483;SDS011;23337;52.212;9.926;2024-02-21T03:57:24;20.60;;;14.00;;
37483;SDS011;23337;52.212;9.926;2024-02-21T03:59:50;20.47;;;13.07;;
37483;SDS011;23337;52.212;9.926;2024-02-21T04:02:17;22.03;;;13.60;;
37483;SDS011;23337;52.212;9.926;2024-02-21T04:04:46;19.63;;;13.03;;
37483;SDS011;23337;52.212;9.926;2024-02-21T04:07:13;20.73;;;13.03;;
37483;SDS011;23337;52.212;9.926;2024-02-21T04:09:39;23.90;;;12.60;;
37483;SDS011;23337;52.212;9.926;2024-02-21T04:12:05;24.63;;;14.23;;
37483;SDS011;23337;52.212;9.926;2024-02-21T04:14:31;22.60;;;12.97;;
37483;SDS011;23337;52.212;9.926;2024-02-21T04:16:57;20.80;;;13.87;;
37483;SDS011;23337;52.212;9.926;2024-02-21T04:19:23;22.07;;;12.43;;
37483;SDS011;23337;52.212;9.926;2024-02-21T04:21:49;20.27;;;12.90;;
37483;SDS011;23337;52.212;9.926;2024-02-21T04:24:15;25.03;;;13.73;;
37483;SDS011;23337;52.212;9.926;2024-02-21T04:26:41;16.80;;;12.57;;
37483;SDS011;23337;52.212;9.926;2024-02-21T04:29:08;19.30;;;12.67;;
37483;SDS011;23337;52.212;9.926;2024-02-21T04:31:34;16.77;;;11.90;;
37483;SDS011;23337;52.212;9.926;2024-02-21T04:34:00;20.27;;;12.13;;
37483;SDS011;23337;52.212;9.926;2024-02-21T04:36:27;21.70;;;13.73;;
37483;SDS011;23337;52.212;9.926;2024-02-21T04:38:53;19.37;;;12.70;;
37483;SDS011;23337;52.212;9.926;2024-02-21T04:41:19;20.80;;;13.80;;
37483;SDS011;23337;52.212;9.926;2024-02-21T04:43:46;17.40;;;11.90;;
37483;SDS011;23337;52.212;9.926;2024-02-21T04:46:13;24.37;;;13.77;;
37483;SDS011;23337;52.212;9.926;2024-02-21T04:48:39;22.57;;;12.97;;
37483;SDS011;23337;52.212;9.926;2024-02-21T04:51:04;16.53;;;11.23;;
37483;SDS011;23337;52.212;9.926;2024-02-21T04:53:30;19.20;;;12.97;;
37483;SDS011;23337;52.212;9.926;2024-02-21T04:55:56;21.33;;;13.23;;
37483;SDS011;23337;52.212;9.926;2024-02-21T04:58:23;23.17;;;12.73;;
37483;SDS011;23337;52.212;9.926;2024-02-21T05:00:49;17.80;;;12.93;;
37483;SDS011;23337;52.212;9.926;2024-02-21T05:03:15;24.07;;;13.60;;
37483;SDS011;23337;52.212;9.926;2024-02-21T05:05:41;18.37;;;13.07;;
37483;SDS011;23337;52.212;9.926;2024-02-21T05:08:07;18.70;;;11.97;;
37483;SDS011;23337;52.212;9.926;2024-02-21T05:10:33;16.60;;;11.83;;
37483;SDS011;23337;52.212;9.926;2024-02-21T05:12:59;23.67;;;13.07;;
37483;SDS011;23337;52.212;9.926;2024-02-21T05:15:25;16.10;;;12.40;;
37483;SDS011;23337;52.212;9.926;2024-02-21T05:17:52;19.83;;;11.57;;
37483;SDS011;23337;52.212;9.926;2024-02-21T05:20:18;16.17;;;11.63;;
37483;SDS011;23337;52.212;9.926;2024-02-21T05:22:43;22.00;;;11.57;;
37483;SDS011;23337;52.212;9.926;2024-02-21T05:25:09;18.23;;;11.47;;
37483;SDS011;23337;52.212;9.926;2024-02-21T05:27:35;18.47;;;11.27;;
37483;SDS011;23337;52.212;9.926;2024-02-21T05:30:03;17.47;;;11.97;;
37483;SDS011;23337;52.212;9.926;2024-02-21T05:32:31;16.67;;;12.50;;
37483;SDS011;23337;52.212;9.926;2024-02-21T05:34:57;18.07;;;11.87;;
37483;SDS011;23337;52.212;9.926;2024-02-21T05:37:23;19.10;;;13.67;;
37483;SDS011;23337;52.212;9.926;2024-02-21T05:39:49;18.83;;;12.80;;
37483;SDS011;23337;52.212;9.926;2024-02-21T05:42:15;15.37;;;11.87;;
37483;SDS011;23337;52.212;9.926;2024-02-21T05:44:41;23.40;;;14.00;;
37483;SDS011;23337;52.212;9.926;2024-02-21T05:47:07;18.93;;;14.07;;
37483;SDS011;23337;52.212;9.926;2024-02-21T05:49:35;22.40;;;12.97;;
37483;SDS011;23337;52.212;9.926;2024-02-21T05:52:01;21.77;;;12.37;;
37483;SDS011;23337;52.212;9.926;2024-02-21T05:54:27;17.90;;;12.17;;
37483;SDS011;23337;52.212;9.926;2024-02-21T05:56:53;21.07;;;13.17;;
37483;SDS011;23337;52.212;9.926;2024-02-21T05:59:19;22.00;;;12.83;;
37483;SDS011;23337;52.212;9.926;2024-02-21T06:01:45;18.80;;;12.67;;
37483;SDS011;23337;52.212;9.926;2024-02-21T06:04:10;16.60;;;11.63;;
37483;SDS011;23337;52.212;9.926;2024-02-21T06:06:36;18.77;;;12.77;;
37483;SDS011;23337;52.212;9.926;2024-02-21T06:09:02;17.10;;;12.43;;
37483;SDS011;23337;52.212;9.926;2024-02-21T06:11:28;18.83;;;12.03;;
37483;SDS011;23337;52.212;9.926;2024-02-21T06:13:54;18.20;;;12.97;;
37483;SDS011;23337;52.212;9.926;2024-02-21T06:16:20;16.93;;;12.20;;
37483;SDS011;23337;52.212;9.926;2024-02-21T06:18:46;15.23;;;11.30;;
37483;SDS011;23337;52.212;9.926;2024-02-21T06:21:12;15.33;;;11.50;;
37483;SDS011;23337;52.212;9.926;2024-02-21T06:23:38;13.93;;;10.97;;
37483;SDS011;23337;52.212;9.926;2024-02-21T06:26:04;15.93;;;11.47;;
37483;SDS011;23337;52.212;9.926;2024-02-21T06:28:30;17.87;;;11.63;;
37483;SDS011;23337;52.212;9.926;2024-02-21T06:30:56;18.50;;;12.13;;
37483;SDS011;23337;52.212;9.926;2024-02-21T06:33:22;16.23;;;10.57;;
37483;SDS011;23337;52.212;9.926;2024-02-21T06:35:49;18.77;;;11.27;;
37483;SDS011;23337;52.212;9.926;2024-02-21T06:38:17;15.40;;;11.27;;
37483;SDS011;23337;52.212;9.926;2024-02-21T06:40:44;14.93;;;11.37;;
37483;SDS011;23337;52.212;9.926;2024-02-21T06:43:14;15.73;;;11.33;;
37483;SDS011;23337;52.212;9.926;2024-02-21T06:45:40;15.30;;;10.47;;
37483;SDS011;23337;52.212;9.926;2024-02-21T06:48:06;14.37;;;10.97;;
37483;SDS011;23337;52.212;9.926;2024-02-21T06:50:33;14.00;;;10.77;;
37483;SDS011;23337;52.212;9.926;2024-02-21T06:52:59;16.30;;;11.50;;
37483;SDS011;23337;52.212;9.926;2024-02-21T06:55:24;14.87;;;10.00;;
37483;SDS011;23337;52.212;9.926;2024-02-21T06:57:50;19.80;;;11.23;;
37483;SDS011;23337;52.212;9.926;2024-02-21T07:00:16;17.53;;;10.40;;
37483;SDS011;23337;52.212;9.926;2024-02-21T07:02:42;15.03;;;11.30;;
37483;SDS011;23337;52.212;9.926;2024-02-21T07:05:08;17.23;;;10.93;;
37483;SDS011;23337;52.212;9.926;2024-02-21T07:07:34;17.90;;;11.73;;
37483;SDS011;23337;52.212;9.926;2024-02-21T07:10:00;16.03;;;9.70;;
37483;SDS011;23337;52.212;9.926;2024-02-21T07:12:26;16.50;;;10.60;;
37483;SDS011;23337;52.212;9.926;2024-02-21T07:14:52;15.27;;;10.23;;
37483;SDS011;23337;52.212;9.926;2024-02-21T07:17:18;17.17;;;11.20;;
37483;SDS011;23337;52.212;9.926;2024-02-21T07:19:44;14.83;;;10.23;;
37483;SDS011;23337;52.212;9.926;2024-02-21T07:22:10;12.70;;;9.50;;
37483;SDS011;23337;52.212;9.926;2024-02-21T07:24:36;14.57;;;9.70;;
37483;SDS011;23337;52.212;9.926;2024-02-21T07:27:02;14.67;;;9.30;;
37483;SDS011;23337;52.212;9.926;2024-02-21T07:29:29;15.47;;;9.67;;
37483;SDS011;23337;52.212;9.926;2024-02-21T07:31:55;11.37;;;8.83;;
37483;SDS011;23337;52.212;9.926;2024-02-21T07:34:21;16.13;;;9.80;;
37483;SDS011;23337;52.212;9.926;2024-02-21T07:36:47;16.10;;;10.27;;
37483;SDS011;23337;52.212;9.926;2024-02-21T07:39:13;16.17;;;10.33;;
37483;SDS011;23337;52.212;9.926;2024-02-21T07:41:39;19.20;;;10.40;;
37483;SDS011;23337;52.212;9.926;2024-02-21T07:44:07;20.60;;;11.20;;
37483;SDS011;23337;52.212;9.926;2024-02-21T07:46:32;18.17;;;10.80;;
37483;SDS011;23337;52.212;9.926;2024-02-21T07:49:00;18.50;;;10.63;;
37483;SDS011;23337;52.212;9.926;2024-02-21T07:51:27;18.07;;;11.03;;
37483;SDS011;23337;52.212;9.926;2024-02-21T07:53:53;18.93;;;10.77;;
37483;SDS011;23337;52.212;9.926;2024-02-21T07:56:19;20.40;;;10.57;;
37483;SDS011;23337;52.212;9.926;2024-02-21T07:58:45;18.17;;;10.87;;
37483;SDS011;23337;52.212;9.926;2024-02-21T08:01:11;19.80;;;10.97;;
37483;SDS011;23337;52.212;9.926;2024-02-21T08:03:37;15.10;;;9.97;;
37483;SDS011;23337;52.212;9.926;2024-02-21T08:06:03;26.23;;;11.87;;
37483;SDS011;23337;52.212;9.926;2024-02-21T08:08:29;16.77;;;11.10;;
37483;SDS011;23337;52.212;9.926;2024-02-21T08:10:55;14.33;;;10.23;;
37483;SDS011;23337;52.212;9.926;2024-02-21T08:13:21;18.87;;;11.50;;
37483;SDS011;23337;52.212;9.926;2024-02-21T08:15:47;15.93;;;9.83;;
37483;SDS011;23337;52.212;9.926;2024-02-21T08:18:13;15.80;;;9.53;;
37483;SDS011;23337;52.212;9.926;2024-02-21T08:20:39;16.83;;;11.33;;
37483;SDS011;23337;52.212;9.926;2024-02-21T08:23:05;18.87;;;10.57;;
37483;SDS011;23337;52.212;9.926;2024-02-21T08:25:31;13.20;;;10.33;;
37483;SDS011;23337;52.212;9.926;2024-02-21T08:27:59;15.37;;;10.23;;
37483;SDS011;23337;52.212;9.926;2024-02-21T08:30:25;19.23;;;10.20;;
37483;SDS011;23337;52.212;9.926;2024-02-21T08:32:52;14.77;;;9.83;;
37483;SDS011;23337;52.212;9.926;2024-02-21T08:35:19;18.73;;;10.80;;
37483;SDS011;23337;52.212;9.926;2024-02-21T08:37:47;14.47;;;9.73;;
37483;SDS011;23337;52.212;9.926;2024-02-21T08:40:13;13.93;;;9.20;;
37483;SDS011;23337;52.212;9.926;2024-02-21T08:42:42;19.00;;;8.43;;
37483;SDS011;23337;52.212;9.926;2024-02-21T08:45:08;14.83;;;8.83;;
37483;SDS011;23337;52.212;9.926;2024-02-21T08:47:34;15.10;;;8.43;;
37483;SDS011;23337;52.212;9.926;2024-02-21T08:50:03;13.77;;;8.67;;
37483;SDS011;23337;52.212;9.926;2024-02-21T08:52:29;12.47;;;8.20;;
37483;SDS011;23337;52.212;9.926;2024-02-21T08:54:55;10.03;;;7.60;;
37483;SDS011;23337;52.212;9.926;2024-02-21T08:57:21;14.57;;;6.97;;
37483;SDS011;23337;52.212;9.926;2024-02-21T08:59:47;12.43;;;7.20;;
37483;SDS011;23337;52.212;9.926;2024-02-21T09:02:13;14.83;;;7.73;;
37483;SDS011;23337;52.212;9.926;2024-02-21T09:04:41;11.77;;;7.47;;
37483;SDS011;23337;52.212;9.926;2024-02-21T09:07:07;12.03;;;7.80;;
37483;SDS011;23337;52.212;9.926;2024-02-21T09:09:33;10.20;;;7.57;;
37483;SDS011;23337;52.212;9.926;2024-02-21T09:11:59;16.53;;;7.27;;
37483;SDS011;23337;52.212;9.926;2024-02-21T09:14:30;11.20;;;6.13;;
37483;SDS011;23337;52.212;9.926;2024-02-21T09:16:57;10.57;;;6.00;;
37483;SDS011;23337;52.212;9.926;2024-02-21T09:19:22;9.90;;;6.30;;
37483;SDS011;23337;52.212;9.926;2024-02-21T09:21:48;11.53;;;6.23;;
37483;SDS011;23337;52.212;9.926;2024-02-21T09:24:14;9.87;;;6.00;;
37483;SDS011;23337;52.212;9.926;2024-02-21T09:26:40;15.77;;;6.70;;
37483;SDS011;23337;52.212;9.926;2024-02-21T09:29:06;14.47;;;6.20;;
37483;SDS011;23337;52.212;9.926;2024-02-21T09:31:33;10.97;;;5.37;;
37483;SDS011;23337;52.212;9.926;2024-02-21T09:33:58;8.63;;;6.10;;
37483;SDS011;23337;52.212;9.926;2024-02-21T09:36:24;9.33;;;5.33;;
37483;SDS011;23337;52.212;9.926;2024-02-21T09:38:50;8.50;;;5.50;;
37483;SDS011;23337;52.212;9.926;2024-02-21T09:43:43;9.00;;;5.40;;
37483;SDS011;23337;52.212;9.926;2024-02-21T09:46:13;11.73;;;5.00;;
37483;SDS011;23337;52.212;9.926;2024-02-21T09:48:45;11.77;;;5.17;;
37483;SDS011;23337;52.212;9.926;2024-02-21T09:51:17;6.67;;;4.47;;
37483;SDS011;23337;52.212;9.926;2024-02-21T09:53:44;10.30;;;5.03;;
37483;SDS011;23337;52.212;9.926;2024-02-21T09:56:10;11.83;;;4.60;;
37483;SDS011;23337;52.212;9.926;2024-02-21T09:58:36;10.30;;;4.97;;
37483;SDS011;23337;52.212;9.926;2024-02-21T10:01:02;8.87;;;5.17;;
37483;SDS011;23337;52.212;9.926;2024-02-21T10:03:31;8.40;;;4.27;;
37483;SDS011;23337;52.212;9.926;2024-02-21T10:05:58;8.17;;;4.27;;
37483;SDS011;23337;52.212;9.926;2024-02-21T10:08:25;8.27;;;4.07;;
37483;SDS011;23337;52.212;9.926;2024-02-21T10:10:52;6.20;;;4.30;;
37483;SDS011;23337;52.212;9.926;2024-02-21T10:13:27;9.33;;;4.00;;
37483;SDS011;23337;52.212;9.926;2024-02-21T10:16:06;5.20;;;3.87;;
37483;SDS011;23337;52.212;9.926;2024-02-21T10:18:32;6.83;;;4.00;;
37483;SDS011;23337;52.212;9.926;2024-02-21T10:21:02;9.57;;;3.80;;
37483;SDS011;23337;52.212;9.926;2024-02-21T10:23:28;7.53;;;3.57;;
37483;SDS011;23337;52.212;9.926;2024-02-21T10:26:04;7.23;;;3.43;;
37483;SDS011;23337;52.212;9.926;2024-02-21T10:28:30;5.27;;;3.00;;
37483;SDS011;23337;52.212;9.926;2024-02-21T10:30:56;8.70;;;3.27;;
37483;SDS011;23337;52.212;9.926;2024-02-21T10:33:21;7.33;;;3.40;;
37483;SDS011;23337;52.212;9.926;2024-02-21T10:35:50;11.53;;;3.80;;
37483;SDS011;23337;52.212;9.926;2024-02-21T10:38:16;6.63;;;3.50;;
37483;SDS011;23337;52.212;9.926;2024-02-21T10:40:42;5.70;;;2.70;;
37483;SDS011;23337;52.212;9.926;2024-02-21T10:43:10;9.17;;;3.13;;
37483;SDS011;23337;52.212;9.926;2024-02-21T10:45:37;5.87;;;2.83;;
37483;SDS011;23337;52.212;9.926;2024-02-21T10:50:36;4.50;;;2.70;;
37483;SDS011;23337;52.212;9.926;2024-02-21T10:53:08;12.30;;;3.87;;
37483;SDS011;23337;52.212;9.926;2024-02-21T10:55:38;8.43;;;2.57;;
37483;SDS011;23337;52.212;9.926;2024-02-21T10:58:04;4.83;;;2.70;;
37483;SDS011;23337;52.212;9.926;2024-02-21T11:00:30;4.90;;;2.70;;
37483;SDS011;23337;52.212;9.926;2024-02-21T11:02:57;5.93;;;2.40;;
37483;SDS011;23337;52.212;9.926;2024-02-21T11:05:24;5.17;;;2.37;;
37483;SDS011;23337;52.212;9.926;2024-02-21T11:07:50;4.83;;;2.53;;
37483;SDS011;23337;52.212;9.926;2024-02-21T11:10:23;3.60;;;2.40;;
37483;SDS011;23337;52.212;9.926;2024-02-21T11:12:52;4.60;;;2.30;;
37483;SDS011;23337;52.212;9.926;2024-02-21T11:15:18;5.10;;;2.43;;
37483;SDS011;23337;52.212;9.926;2024-02-21T11:17:53;10.07;;;3.67;;
37483;SDS011;23337;52.212;9.926;2024-02-21T11:20:20;3.13;;;2.57;;
37483;SDS011;23337;52.212;9.926;2024-02-21T11:22:46;4.80;;;2.57;;
37483;SDS011;23337;52.212;9.926;2024-02-21T11:25:13;5.33;;;2.30;;
37483;SDS011;23337;52.212;9.926;2024-02-21T11:27:46;5.37;;;2.47;;
37483;SDS011;23337;52.212;9.926;2024-02-21T11:30:12;5.17;;;2.47;;
37483;SDS011;23337;52.212;9.926;2024-02-21T11:32:47;6.27;;;2.20;;
37483;SDS011;23337;52.212;9.926;2024-02-21T11:35:19;5.10;;;2.33;;
37483;SDS011;23337;52.212;9.926;2024-02-21T11:37:45;6.43;;;2.60;;
37483;SDS011;23337;52.212;9.926;2024-02-21T11:40:11;2.80;;;2.07;;
37483;SDS011;23337;52.212;9.926;2024-02-21T11:42:38;3.43;;;2.03;;
37483;SDS011;23337;52.212;9.926;2024-02-21T11:45:04;4.87;;;2.27;;
37483;SDS011;23337;52.212;9.926;2024-02-21T11:47:30;4.47;;;2.47;;
37483;SDS011;23337;52.212;9.926;2024-02-21T11:49:56;6.37;;;2.90;;
37483;SDS011;23337;52.212;9.926;2024-02-21T11:52:22;4.57;;;3.23;;
37483;SDS011;23337;52.212;9.926;2024-02-21T11:54:50;8.33;;;3.73;;
37483;SDS011;23337;52.212;9.926;2024-02-21T11:57:16;5.00;;;3.07;;
37483;SDS011;23337;52.212;9.926;2024-02-21T11:59:44;4.60;;;3.30;;
37483;SDS011;23337;52.212;9.926;2024-02-21T12:02:10;6.33;;;4.80;;
37483;SDS011;23337;52.212;9.926;2024-02-21T12:04:36;6.00;;;4.47;;
37483;SDS011;23337;52.212;9.926;2024-02-21T12:07:02;7.47;;;5.57;;
37483;SDS011;23337;52.212;9.926;2024-02-21T12:09:31;9.43;;;6.40;;
37483;SDS011;23337;52.212;9.926;2024-02-21T12:11:57;10.67;;;8.03;;
37483;SDS011;23337;52.212;9.926;2024-02-21T12:14:24;12.40;;;7.90;;
37483;SDS011;23337;52.212;9.926;2024-02-21T12:16:50;10.00;;;6.80;;
37483;SDS011;23337;52.212;9.926;2024-02-21T12:19:16;9.53;;;7.50;;
37483;SDS011;23337;52.212;9.926;2024-02-21T12:21:42;9.60;;;6.83;;
37483;SDS011;23337;52.212;9.926;2024-02-21T12:24:13;11.87;;;7.77;;
37483;SDS011;23337;52.212;9.926;2024-02-21T12:26:39;10.03;;;7.10;;
37483;SDS011;23337;52.212;9.926;2024-02-21T12:29:05;11.83;;;7.30;;
37483;SDS011;23337;52.212;9.926;2024-02-21T12:31:34;10.80;;;7.83;;
37483;SDS011;23337;52.212;9.926;2024-02-21T12:34:00;12.20;;;8.30;;
37483;SDS011;23337;52.212;9.926;2024-02-21T12:36:26;11.57;;;8.30;;
37483;SDS011;23337;52.212;9.926;2024-02-21T12:38:52;10.90;;;8.10;;
37483;SDS011;23337;52.212;9.926;2024-02-21T12:41:18;10.87;;;8.60;;
37483;SDS011;23337;52.212;9.926;2024-02-21T12:43:43;12.10;;;8.33;;
37483;SDS011;23337;52.212;9.926;2024-02-21T12:46:09;12.33;;;8.20;;
37483;SDS011;23337;52.212;9.926;2024-02-21T12:48:36;10.70;;;8.33;;
37483;SDS011;23337;52.212;9.926;2024-02-21T12:51:02;11.70;;;8.23;;
37483;SDS011;23337;52.212;9.926;2024-02-21T12:53:28;12.80;;;8.37;;
37483;SDS011;23337;52.212;9.926;2024-02-21T12:55:55;11.43;;;8.07;;
37483;SDS011;23337;52.212;9.926;2024-02-21T12:58:21;10.40;;;7.13;;
37483;SDS011;23337;52.212;9.926;2024-02-21T13:00:47;13.63;;;7.83;;
37483;SDS011;23337;52.212;9.926;2024-02-21T13:03:13;11.07;;;7.13;;
37483;SDS011;23337;52.212;9.926;2024-02-21T13:05:39;8.60;;;6.83;;
37483;SDS011;23337;52.212;9.926;2024-02-21T13:08:06;9.30;;;6.83;;
37483;SDS011;23337;52.212;9.926;2024-02-21T13:10:32;11.13;;;6.70;;
37483;SDS011;23337;52.212;9.926;2024-02-21T13:13:01;11.77;;;6.83;;
37483;SDS011;23337;52.212;9.926;2024-02-21T13:15:27;8.17;;;6.53;;
37483;SDS011;23337;52.212;9.926;2024-02-21T13:17:54;7.97;;;5.57;;
37483;SDS011;23337;52.212;9.926;2024-02-21T13:20:20;7.80;;;5.60;;
37483;SDS011;23337;52.212;9.926;2024-02-21T13:22:46;6.93;;;5.13;;
37483;SDS011;23337;52.212;9.926;2024-02-21T13:25:12;9.70;;;4.57;;
37483;SDS011;23337;52.212;9.926;2024-02-21T13:27:43;7.57;;;4.03;;
37483;SDS011;23337;52.212;9.926;2024-02-21T13:30:09;6.93;;;4.37;;
37483;SDS011;23337;52.212;9.926;2024-02-21T13:32:36;8.93;;;4.93;;
37483;SDS011;23337;52.212;9.926;2024-02-21T13:35:02;6.33;;;3.60;;
37483;SDS011;23337;52.212;9.926;2024-02-21T13:37:28;7.03;;;4.00;;
37483;SDS011;23337;52.212;9.926;2024-02-21T13:39:54;6.27;;;3.47;;
37483;SDS011;23337;52.212;9.926;2024-02-21T13:42:20;4.60;;;3.80;;
37483;SDS011;23337;52.212;9.926;2024-02-21T13:44:46;5.67;;;3.27;;
37483;SDS011;23337;52.212;9.926;2024-02-21T13:47:14;9.67;;;3.63;;
37483;SDS011;23337;52.212;9.926;2024-02-21T13:49:40;5.60;;;3.83;;
37483;SDS011;23337;52.212;9.926;2024-02-21T13:52:06;6.53;;;3.10;;
37483;SDS011;23337;52.212;9.926;2024-02-21T13:54:32;7.07;;;3.03;;
37483;SDS011;23337;52.212;9.926;2024-02-21T13:56:58;11.40;;;2.97;;
37483;SDS011;23337;52.212;9.926;2024-02-21T13:59:24;4.73;;;2.40;;
37483;SDS011;23337;52.212;9.926;2024-02-21T14:01:51;5.80;;;2.60;;
37483;SDS011;23337;52.212;9.926;2024-02-21T14:04:17;5.87;;;2.90;;
37483;SDS011;23337;52.212;9.926;2024-02-21T14:06:43;8.03;;;3.07;;
37483;SDS011;23337;52.212;9.926;2024-02-21T14:09:09;6.60;;;3.03;;
37483;SDS011;23337;52.212;9.926;2024-02-21T14:11:35;5.13;;;2.20;;
37483;SDS011;23337;52.212;9.926;2024-02-21T14:14:03;5.67;;;2.20;;
37483;SDS011;23337;52.212;9.926;2024-02-21T14:16:29;6.10;;;2.57;;
37483;SDS011;23337;52.212;9.926;2024-02-21T14:18:55;6.37;;;2.57;;
37483;SDS011;23337;52.212;9.926;2024-02-21T14:21:21;5.63;;;2.57;;
37483;SDS011;23337;52.212;9.926;2024-02-21T14:23:47;5.40;;;2.57;;
37483;SDS011;23337;52.212;9.926;2024-02-21T14:26:13;5.10;;;2.33;;
37483;SDS011;23337;52.212;9.926;2024-02-21T14:28:39;5.90;;;2.87;;
37483;SDS011;23337;52.212;9.926;2024-02-21T14:31:06;5.83;;;3.27;;